Time;durP1;ratioP1;P1;durP2;ratioP2;P2;SDS_P1;SDS_P2;PMS_P1;PMS_P2;Temp;Humidity;BMP_temperature;BMP_pressure;BME280_temperature;BME280_humidity;BME280_pressure;Samples;Min_cycle;Max_cycle;Signal;HPM_P1;HPM_P2
2021/10/05 00:03:17;;;;;;;0.30;0.20;;;23.40;47.80;27.90;93620.00;;;;10390405;28;73373;-63
2021/10/05 00:08:17;;;;;;;0.10;0.10;;;23.40;47.80;27.80;93588.00;;;;10391657;28;75578;-63
2021/10/05 00:13:18;;;;;;;0.30;0.20;;;23.40;47.90;27.80;93595.00;;;;10374797;28;47522;-63
2021/10/05 00:18:19;;;;;;;0.25;0.13;;;23.40;47.80;27.80;93586.00;;;;10391820;28;70616;-62
2021/10/05 00:23:19;;;;;;;0.55;0.20;;;23.40;47.80;27.80;93597.00;;;;10390156;28;64730;-63
2021/10/05 00:28:20;;;;;;;0.35;0.20;;;23.40;47.80;27.80;93620.00;;;;10391502;28;74622;-63
2021/10/05 00:33:21;;;;;;;0.20;0.20;;;23.40;47.90;27.80;93625.00;;;;10390908;28;45282;-62
2021/10/05 00:38:21;;;;;;;0.10;0.10;;;23.40;47.80;27.80;93614.00;;;;10390750;28;75728;-62
2021/10/05 00:43:23;;;;;;;0.30;0.17;;;23.40;47.90;27.80;93602.00;;;;10389416;28;75429;-63
2021/10/05 00:48:24;;;;;;;0.22;0.20;;;23.40;47.90;27.70;93600.00;;;;10375949;28;47536;-63
2021/10/05 00:53:25;;;;;;;0.30;0.20;;;23.40;47.90;27.80;93601.00;;;;10396863;28;48324;-63
2021/10/05 00:58:25;;;;;;;0.20;0.20;;;23.40;47.90;27.70;93592.00;;;;10395957;28;51561;-63
2021/10/05 01:03:26;;;;;;;0.10;0.10;;;23.30;47.80;27.70;93584.00;;;;10392156;28;75754;-63
2021/10/05 01:08:31;;;;;;;0.45;0.17;;;23.30;47.90;27.70;93577.00;;;;10397648;28;61429;-63
2021/10/05 01:13:32;;;;;;;0.50;0.13;;;23.30;47.90;27.70;93567.00;;;;10397007;28;47295;-63
2021/10/05 01:18:33;;;;;;;0.40;0.17;;;23.30;47.80;27.70;93564.00;;;;10398589;28;45520;-63
2021/10/05 01:23:34;;;;;;;0.20;0.10;;;23.30;47.80;27.70;93555.00;;;;10396731;28;47327;-63
2021/10/05 01:28:34;;;;;;;0.20;0.10;;;23.30;47.80;27.70;93562.00;;;;10396940;28;46472;-64
2021/10/05 01:33:35;;;;;;;0.47;0.10;;;23.30;47.90;27.70;93558.00;;;;10396448;28;73696;-62
2021/10/05 01:38:36;;;;;;;0.40;0.30;;;23.30;47.90;27.70;93572.00;;;;10395857;28;75505;-63
2021/10/05 01:43:36;;;;;;;0.25;0.10;;;23.30;47.90;27.70;93568.00;;;;10396000;28;75247;-63
2021/10/05 01:48:38;;;;;;;0.17;0.10;;;23.30;47.90;27.60;93549.00;;;;10396636;28;68116;-63
2021/10/05 01:53:39;;;;;;;0.10;0.10;;;23.30;47.90;27.60;93552.00;;;;10436201;22;52328;-63
2021/10/05 01:58:40;;;;;;;0.25;0.10;;;23.30;47.90;27.60;93536.00;;;;10370357;28;46770;-64
2021/10/05 02:03:41;;;;;;;0.22;0.22;;;23.30;47.90;27.60;93526.00;;;;10354169;28;47113;-65
2021/10/05 02:08:42;;;;;;;0.70;0.20;;;23.30;47.90;27.60;93538.00;;;;10356007;28;45360;-63
2021/10/05 02:13:42;;;;;;;0.10;0.10;;;23.30;47.90;27.60;93542.00;;;;10355037;28;65521;-65
2021/10/05 02:18:46;;;;;;;0.20;0.20;;;23.30;47.90;27.60;93539.00;;;;10337342;28;48492;-64
2021/10/05 02:29:07;;;;;;;0.20;0.10;;;23.20;48.50;27.60;93528.00;;;;10353543;28;45466;-65
2021/10/05 02:34:08;;;;;;;0.20;0.10;;;23.30;47.90;27.60;93536.00;;;;10353071;28;46445;-65
2021/10/05 02:39:09;;;;;;;0.30;0.20;;;23.20;47.90;27.60;93538.00;;;;10353262;28;45563;-65
2021/10/05 02:44:10;;;;;;;0.30;0.20;;;23.20;47.80;27.60;93532.00;;;;10336724;28;47177;-65
2021/10/05 02:49:11;;;;;;;0.10;0.10;;;23.20;47.90;27.60;93516.00;;;;10352038;28;74203;-65
2021/10/05 02:54:12;;;;;;;0.03;0.03;;;23.20;47.90;27.50;93521.00;;;;10336525;28;47107;-62
2021/10/05 02:59:14;;;;;;;0.68;0.20;;;23.20;47.90;27.50;93499.00;;;;10335828;28;74190;-65
2021/10/05 03:04:15;;;;;;;0.45;0.20;;;23.20;47.90;27.50;93517.00;;;;10352873;28;45389;-65
2021/10/05 03:09:15;;;;;;;0.30;0.05;;;23.20;47.90;27.50;93499.00;;;;10334629;28;75488;-65
2021/10/05 03:14:16;;;;;;;0.17;0.10;;;23.20;48.00;27.50;93509.00;;;;10335208;28;47059;-63
2021/10/05 03:19:17;;;;;;;0.30;0.10;;;23.20;47.90;27.50;93504.00;;;;10352980;28;53120;-63
2021/10/05 03:24:18;;;;;;;0.20;0.10;;;23.20;47.90;27.50;93509.00;;;;10352009;28;73630;-63
2021/10/05 03:29:18;;;;;;;0.10;0.10;;;23.20;47.90;27.50;93505.00;;;;10353066;28;75709;-65
2021/10/05 03:34:19;;;;;;;0.13;0.10;;;23.10;47.90;27.50;93515.00;;;;10352273;28;56179;-63
2021/10/05 03:39:20;;;;;;;0.10;0.10;;;23.10;47.90;27.50;93503.00;;;;10352343;28;45485;-66
2021/10/05 03:44:21;;;;;;;0.10;0.10;;;23.10;47.90;27.50;93508.00;;;;10351805;28;52614;-67
2021/10/05 03:49:21;;;;;;;0.10;0.10;;;23.10;47.90;27.50;93501.00;;;;10334909;28;74355;-63
2021/10/05 03:54:22;;;;;;;0.30;0.20;;;23.10;47.90;27.50;93503.00;;;;10342383;28;74492;-63
2021/10/05 03:59:23;;;;;;;0.03;0.03;;;23.10;47.90;27.50;93503.00;;;;10329943;28;75720;-63
2021/10/05 04:04:23;;;;;;;0.10;0.10;;;23.10;47.90;27.50;93504.00;;;;10329462;28;72800;-63
2021/10/05 04:09:24;;;;;;;0.20;0.10;;;23.10;48.60;27.40;93496.00;;;;10327859;28;73858;-65
2021/10/05 04:14:24;;;;;;;0.10;0.03;;;23.10;48.00;27.50;93506.00;;;;10329171;28;74365;-63
2021/10/05 04:19:25;;;;;;;0.38;0.10;;;23.20;48.00;27.50;93503.00;;;;10328109;28;75105;-67
2021/10/05 04:24:26;;;;;;;0.20;0.10;;;23.30;48.10;27.60;93502.00;;;;10326727;28;75576;-63
2021/10/05 04:29:26;;;;;;;0.10;0.10;;;23.30;48.00;27.60;93496.00;;;;10326398;28;74388;-63
2021/10/05 04:34:27;;;;;;;0.50;0.20;;;23.30;47.90;27.70;93488.00;;;;10328611;28;47506;-63
2021/10/05 04:39:28;;;;;;;0.10;0.10;;;23.40;48.00;27.70;93494.00;;;;10321228;28;75168;-66
2021/10/05 04:44:29;;;;;;;0.25;0.10;;;23.40;47.90;27.70;93490.00;;;;10310537;28;45362;-62
2021/10/05 04:49:31;;;;;;;0.10;0.10;;;23.50;47.90;27.80;93488.00;;;;10309769;28;55470;-65
2021/10/05 04:54:32;;;;;;;0.17;0.10;;;23.50;47.80;27.80;93482.00;;;;10309467;28;46211;-64
2021/10/05 04:59:33;;;;;;;0.00;0.00;;;23.50;47.90;27.90;93480.00;;;;10310358;28;45350;-63
2021/10/05 05:04:34;;;;;;;0.17;0.10;;;23.50;48.40;27.90;93473.00;;;;10309202;28;45378;-65
2021/10/05 05:09:35;;;;;;;0.10;0.08;;;23.50;47.60;27.90;93480.00;;;;10309209;28;45499;-64
2021/10/05 05:14:35;;;;;;;0.20;0.20;;;23.60;47.60;27.90;93480.00;;;;10309183;28;46362;-63
2021/10/05 05:19:36;;;;;;;0.70;0.10;;;23.60;47.60;27.90;93477.00;;;;10309735;28;45636;-63
2021/10/05 05:24:37;;;;;;;0.32;0.17;;;23.50;47.40;27.90;93473.00;;;;10308926;28;47833;-65
2021/10/05 05:29:37;;;;;;;0.38;0.10;;;23.50;47.30;27.90;93477.00;;;;10307584;28;69916;-63
2021/10/05 05:34:38;;;;;;;0.17;0.10;;;23.60;47.30;27.90;93463.00;;;;10310075;28;67270;-63
2021/10/05 05:39:43;;;;;;;0.20;0.10;;;23.60;47.20;27.90;93470.00;;;;10314455;28;75139;-65
2021/10/05 05:44:43;;;;;;;0.43;0.10;;;23.60;47.20;27.90;93471.00;;;;10315202;28;45472;-63
2021/10/05 05:49:44;;;;;;;0.00;0.00;;;23.60;47.20;27.90;93476.00;;;;10314579;28;74746;-64
2021/10/05 05:54:45;;;;;;;0.25;0.10;;;23.60;47.30;28.00;93464.00;;;;10314467;28;56589;-66
2021/10/05 05:59:45;;;;;;;0.38;0.13;;;23.60;47.50;28.00;93471.00;;;;10314443;28;74953;-67
2021/10/05 06:04:46;;;;;;;0.30;0.10;;;23.70;47.30;28.00;93469.00;;;;10315348;28;46555;-63
2021/10/05 06:09:47;;;;;;;0.10;0.10;;;23.70;47.20;28.00;93459.00;;;;10314509;28;46956;-62
2021/10/05 06:14:47;;;;;;;1.00;0.10;;;23.70;47.20;28.00;93462.00;;;;10313936;28;73459;-66
2021/10/05 06:19:48;;;;;;;0.98;0.10;;;23.70;47.20;28.00;93455.00;;;;10314779;28;74204;-63
2021/10/05 06:24:49;;;;;;;0.03;0.00;;;23.70;47.10;28.00;93441.00;;;;10328045;28;75132;-66
2021/10/05 06:29:49;;;;;;;0.40;0.08;;;23.70;46.90;28.00;93447.00;;;;10351978;28;74027;-66
2021/10/05 06:34:50;;;;;;;1.45;0.10;;;23.70;46.80;28.00;93435.00;;;;10336410;28;54504;-66
2021/10/05 06:39:51;;;;;;;0.20;0.20;;;23.70;46.80;28.00;93435.00;;;;10336537;28;47138;-63
2021/10/05 06:44:52;;;;;;;1.27;0.40;;;23.70;46.50;28.00;93435.00;;;;10335842;28;47161;-67
2021/10/05 06:49:53;;;;;;;1.20;0.70;;;23.70;46.50;28.00;93435.00;;;;10334672;28;75275;-65
2021/10/05 06:54:53;;;;;;;1.85;0.68;;;23.70;46.50;28.00;93428.00;;;;10334744;28;74094;-63
2021/10/05 06:59:54;;;;;;;0.45;0.40;;;23.70;46.40;28.00;93432.00;;;;10351091;28;74164;-65
2021/10/05 07:04:55;;;;;;;0.90;0.60;;;23.70;46.60;28.00;93449.00;;;;10335748;28;47905;-64
2021/10/05 07:09:55;;;;;;;2.20;0.70;;;23.60;46.20;28.00;93448.00;;;;10350761;28;75304;-65
2021/10/05 07:14:56;;;;;;;1.30;0.77;;;23.60;45.60;27.90;93447.00;;;;10351477;28;75258;-66
2021/10/05 07:19:57;;;;;;;2.17;0.60;;;23.60;45.70;27.90;93447.00;;;;10351008;28;75263;-63
2021/10/05 07:24:58;;;;;;;0.85;0.50;;;23.60;45.50;27.90;93460.00;;;;10351267;28;59726;-65
2021/10/05 07:30:01;;;;;;;0.35;0.35;;;23.50;45.40;27.90;93453.00;;;;10349952;28;74415;-65
2021/10/05 07:35:01;;;;;;;0.68;0.25;;;23.50;45.10;27.80;93450.00;;;;10350872;28;47951;-63
2021/10/05 07:40:03;;;;;;;0.50;0.20;;;23.50;45.00;27.70;93447.00;;;;10351068;28;46724;-63
2021/10/05 07:45:04;;;;;;;0.30;0.25;;;23.40;44.80;27.70;93456.00;;;;10350934;28;46473;-63
2021/10/05 07:50:05;;;;;;;0.50;0.32;;;23.40;44.80;27.60;93445.00;;;;10350408;28;51320;-63
2021/10/05 07:55:06;;;;;;;0.88;0.57;;;23.30;45.00;27.60;93454.00;;;;10401329;22;46233;-65
2021/10/05 08:00:09;;;;;;;0.70;0.40;;;23.30;45.10;27.60;93448.00;;;;10408543;28;46227;-65
2021/10/05 08:05:11;;;;;;;0.30;0.30;;;23.30;45.00;27.60;93444.00;;;;10403076;28;55426;-65
2021/10/05 08:10:13;;;;;;;0.32;0.20;;;23.30;45.10;27.60;93459.00;;;;10433013;28;45466;-64
2021/10/05 08:15:14;;;;;;;0.20;0.20;;;23.30;45.10;27.60;93452.00;;;;10434786;28;45538;-65
2021/10/05 08:20:15;;;;;;;0.20;0.20;;;23.30;45.30;27.60;93458.00;;;;10433196;28;74181;-65
2021/10/05 08:25:16;;;;;;;4.32;0.40;;;23.30;45.50;27.60;93450.00;;;;10434118;28;45417;-64
2021/10/05 08:30:18;;;;;;;0.70;0.15;;;23.40;45.60;27.60;93426.00;;;;10433706;28;45409;-64
2021/10/05 08:35:20;;;;;;;0.20;0.17;;;23.40;45.70;27.70;93436.00;;;;10434304;28;45401;-64
2021/10/05 08:40:20;;;;;;;0.95;0.30;;;23.40;45.60;27.70;93440.00;;;;10432974;28;47482;-65
2021/10/05 08:45:21;;;;;;;1.00;0.20;;;23.40;45.60;27.80;93429.00;;;;10432528;28;74559;-64
2021/10/05 08:50:22;;;;;;;1.30;0.20;;;23.40;45.70;27.80;93426.00;;;;10433771;28;46391;-65
2021/10/05 08:55:23;;;;;;;0.73;0.17;;;23.50;45.80;27.80;93425.00;;;;10432247;28;45448;-64
2021/10/05 09:00:31;;;;;;;0.28;0.10;;;23.50;45.90;27.80;93434.00;;;;10415811;28;48136;-65
2021/10/05 09:05:31;;;;;;;0.52;0.15;;;23.50;46.00;27.80;93426.00;;;;10432282;28;47270;-65
2021/10/05 09:10:36;;;;;;;0.10;0.10;;;23.50;46.00;27.80;93441.00;;;;10435374;28;74238;-65
2021/10/05 09:15:36;;;;;;;0.10;0.10;;;23.50;46.00;27.90;93435.00;;;;10440179;28;45509;-65
2021/10/05 09:20:37;;;;;;;0.28;0.10;;;23.50;46.10;27.90;93436.00;;;;10439056;28;57511;-63
2021/10/05 09:25:50;;;;;;;0.20;0.20;;;23.50;46.10;27.90;93428.00;;;;10439098;28;52623;-65
2021/10/05 09:31:03;;;;;;;0.32;0.20;;;23.50;46.20;27.90;93419.00;;;;10438982;28;47007;-65
2021/10/05 09:36:06;;;;;;;0.35;0.10;;;23.60;46.30;27.90;93430.00;;;;10436303;28;45376;-65
2021/10/05 09:41:09;;;;;;;0.17;0.13;;;23.50;46.30;27.90;93424.00;;;;10440675;28;45486;-65
2021/10/05 09:46:17;;;;;;;0.30;0.20;;;23.50;46.30;27.90;93447.00;;;;10437641;28;45612;-65
2021/10/05 09:51:23;;;;;;;0.00;0.00;;;23.60;46.40;28.00;93436.00;;;;10437515;28;45349;-64
2021/10/05 09:56:28;;;;;;;0.10;0.10;;;23.60;46.40;28.00;93434.00;;;;10436755;28;45543;-64
2021/10/05 10:01:30;;;;;;;0.10;0.10;;;23.60;46.40;28.00;93451.00;;;;10421159;28;47189;-64
2021/10/05 10:06:32;;;;;;;0.25;0.15;;;23.60;46.40;28.00;93456.00;;;;10437922;28;46142;-65
2021/10/05 10:11:34;;;;;;;0.22;0.20;;;23.70;46.50;28.00;93444.00;;;;10436269;28;74558;-65
2021/10/05 10:16:35;;;;;;;0.10;0.10;;;23.70;46.50;28.10;93443.00;;;;10436309;28;46303;-64
2021/10/05 10:21:40;;;;;;;0.38;0.20;;;23.70;46.50;28.10;93444.00;;;;10435518;28;45400;-64
2021/10/05 10:26:48;;;;;;;0.63;0.30;;;23.70;46.50;28.10;93464.00;;;;10436712;28;45355;-65
2021/10/05 10:31:49;;;;;;;0.30;0.10;;;23.70;46.50;28.10;93460.00;;;;10436991;28;45549;-65
2021/10/05 10:36:51;;;;;;;0.22;0.10;;;23.80;46.50;28.10;93459.00;;;;10434501;28;74429;-64
2021/10/05 10:41:52;;;;;;;0.00;0.00;;;23.80;46.60;28.10;93456.00;;;;10436608;28;45304;-65
2021/10/05 10:47:16;;;;;;;0.20;0.10;;;23.80;46.60;28.20;93456.00;;;;10436539;28;45280;-64
2021/10/05 10:52:27;;;;;;;0.20;0.20;;;23.80;46.60;28.20;93465.00;;;;10435723;28;46483;-65
2021/10/05 10:57:40;;;;;;;0.10;0.10;;;23.80;46.60;28.20;93465.00;;;;10418424;28;47558;-65
2021/10/05 11:02:56;;;;;;;0.30;0.20;;;23.80;46.60;28.20;93462.00;;;;10436700;28;45520;-66
2021/10/05 11:07:58;;;;;;;0.30;0.20;;;23.80;46.60;28.10;93469.00;;;;10435475;28;45384;-65
2021/10/05 11:13:05;;;;;;;0.20;0.10;;;23.80;46.60;28.20;93461.00;;;;10435221;28;45444;-65
2021/10/05 11:18:17;;;;;;;0.52;0.10;;;23.80;46.60;28.20;93471.00;;;;10434813;28;46482;-65
2021/10/05 11:23:23;;;;;;;0.10;0.10;;;23.80;46.60;28.20;93462.00;;;;10435595;28;45324;-65
2021/10/05 11:28:29;;;;;;;0.10;0.10;;;23.90;46.70;28.20;93440.00;;;;10435536;28;53829;-66
2021/10/05 11:33:41;;;;;;;0.10;0.10;;;23.80;46.60;28.30;93447.00;;;;10427564;28;45501;-64
2021/10/05 11:38:48;;;;;;;0.10;0.10;;;23.90;46.70;28.20;93440.00;;;;10393519;28;45454;-65
2021/10/05 11:43:52;;;;;;;0.20;0.10;;;23.90;46.70;28.30;93429.00;;;;10393716;28;53030;-64
2021/10/05 11:48:55;;;;;;;1.38;0.20;;;23.90;46.70;28.30;93425.00;;;;10392095;28;46053;-64
2021/10/05 11:53:59;;;;;;;0.52;0.10;;;23.90;46.70;28.30;93420.00;;;;10391781;28;45458;-64
2021/10/05 11:58:59;;;;;;;0.15;0.10;;;23.90;46.70;28.30;93425.00;;;;10392380;28;46181;-64
2021/10/05 12:04:08;;;;;;;1.25;0.20;;;23.90;46.80;28.30;93435.00;;;;10392988;28;45337;-65
2021/10/05 12:09:18;;;;;;;0.10;0.10;;;23.90;46.80;28.30;93434.00;;;;10391503;28;47121;-65
2021/10/05 12:14:23;;;;;;;0.75;0.10;;;23.90;47.40;28.30;93420.00;;;;10392415;28;46486;-65
2021/10/05 12:19:28;;;;;;;0.20;0.10;;;23.90;46.80;28.30;93428.00;;;;10429703;28;46450;-65
2021/10/05 12:24:56;;;;;;;0.25;0.20;;;23.90;46.70;28.40;93426.00;;;;10433059;28;45300;-65
2021/10/05 12:30:10;;;;;;;0.50;0.10;;;23.90;46.80;28.30;93410.00;;;;10414117;28;54521;-65
2021/10/05 12:35:31;;;;;;;0.88;0.20;;;23.90;46.70;28.40;93414.00;;;;10432130;28;47345;-64
2021/10/05 12:40:57;;;;;;;0.35;0.10;;;23.90;46.70;28.40;93412.00;;;;10431298;28;47110;-65
2021/10/05 12:45:58;;;;;;;1.25;0.10;;;24.00;46.80;28.40;93398.00;;;;10430908;28;46258;-65
2021/10/05 12:51:00;;;;;;;1.75;0.30;;;24.00;46.70;28.40;93389.00;;;;10431125;28;53529;-65
2021/10/05 12:56:01;;;;;;;1.67;0.30;;;24.00;46.80;28.40;93392.00;;;;10430581;28;55117;-65
2021/10/05 13:01:02;;;;;;;0.75;0.13;;;24.00;46.80;28.40;93397.00;;;;10430776;28;68052;-64
2021/10/05 13:06:04;;;;;;;0.68;0.20;;;24.00;46.80;28.40;93400.00;;;;10431574;28;45343;-64
2021/10/05 13:11:04;;;;;;;0.50;0.20;;;24.00;46.80;28.40;93395.00;;;;10431506;28;45288;-65
2021/10/05 13:16:05;;;;;;;1.13;0.30;;;24.00;46.70;28.40;93387.00;;;;10412519;28;75737;-64
2021/10/05 13:21:06;;;;;;;0.90;0.20;;;24.00;46.70;28.50;93374.00;;;;10413447;28;47805;-64
2021/10/05 13:26:07;;;;;;;0.75;0.30;;;24.10;46.70;28.50;93385.00;;;;10430287;28;52000;-65
2021/10/05 13:31:08;;;;;;;0.38;0.20;;;24.10;46.70;28.60;93365.00;;;;10429273;28;74502;-64
2021/10/05 13:36:09;;;;;;;0.40;0.10;;;24.10;46.60;28.60;93368.00;;;;10429598;28;73958;-64
2021/10/05 13:41:11;;;;;;;1.65;0.30;;;24.20;46.70;28.60;93372.00;;;;10430753;28;45444;-65
2021/10/05 13:46:12;;;;;;;0.63;0.20;;;24.20;46.70;28.60;93372.00;;;;10440608;28;45714;-65
2021/10/05 13:51:12;;;;;;;2.08;0.55;;;24.20;46.70;28.60;93374.00;;;;10454848;28;63843;-66
2021/10/05 13:56:13;;;;;;;0.25;0.10;;;24.10;46.70;28.60;93358.00;;;;10473572;28;74164;-65
2021/10/05 14:01:14;;;;;;;0.30;0.10;;;24.10;46.70;28.50;93361.00;;;;10478882;28;61764;-65
2021/10/05 14:06:16;;;;;;;0.70;0.20;;;24.10;46.80;28.50;93357.00;;;;10476650;28;74752;-65
2021/10/05 14:11:17;;;;;;;1.45;0.20;;;24.10;46.80;28.50;93349.00;;;;10479976;28;46121;-65
2021/10/05 14:16:17;;;;;;;0.70;0.20;;;24.10;46.80;28.50;93367.00;;;;10477155;28;48000;-64
2021/10/05 14:21:18;;;;;;;1.00;0.25;;;24.10;46.80;28.50;93352.00;;;;10475453;28;75441;-65
2021/10/05 14:26:19;;;;;;;0.38;0.10;;;24.10;46.80;28.50;93352.00;;;;10419118;28;45498;-64
2021/10/05 14:31:20;;;;;;;1.77;0.30;;;24.10;46.80;28.50;93358.00;;;;10418358;28;74433;-64
2021/10/05 14:36:21;;;;;;;0.25;0.20;;;24.10;46.80;28.40;93354.00;;;;10435487;28;47310;-64
2021/10/05 14:41:22;;;;;;;2.33;0.43;;;24.00;46.90;28.40;93350.00;;;;10435952;28;45840;-64
2021/10/05 14:46:23;;;;;;;0.82;0.40;;;24.00;47.00;28.40;93345.00;;;;10434850;28;47019;-65
2021/10/05 14:51:23;;;;;;;0.93;0.60;;;24.00;47.00;28.40;93352.00;;;;10435520;28;74436;-64
2021/10/05 14:56:24;;;;;;;0.63;0.50;;;24.00;47.00;28.40;93342.00;;;;10436255;28;45484;-64
2021/10/05 15:01:25;;;;;;;1.77;0.70;;;24.00;46.90;28.40;93356.00;;;;10434082;28;62820;-65
2021/10/05 15:06:26;;;;;;;1.77;0.60;;;24.00;47.00;28.40;93364.00;;;;10416432;28;74846;-65
2021/10/05 15:11:27;;;;;;;0.70;0.50;;;24.10;47.00;28.40;93370.00;;;;10434987;28;58602;-65
2021/10/05 15:16:27;;;;;;;0.60;0.30;;;24.10;47.10;28.40;93362.00;;;;10418576;28;47244;-65
2021/10/05 15:21:29;;;;;;;1.23;0.55;;;24.00;47.00;28.40;93377.00;;;;10435747;28;46241;-66
2021/10/05 15:26:30;;;;;;;1.00;0.50;;;24.00;47.00;28.40;93370.00;;;;10434460;28;46510;-65
2021/10/05 15:31:30;;;;;;;0.90;0.50;;;24.00;47.00;28.40;93360.00;;;;10434331;28;47239;-65
2021/10/05 15:36:31;;;;;;;1.08;0.50;;;24.10;47.10;28.40;93362.00;;;;10434120;28;75457;-65
2021/10/05 15:41:32;;;;;;;1.85;0.40;;;24.00;47.00;28.50;93384.00;;;;10433556;28;75632;-66
2021/10/05 15:46:33;;;;;;;1.13;0.60;;;24.10;47.10;28.50;93357.00;;;;10434077;28;45666;-65
2021/10/05 15:56:37;;;;;;;1.67;0.70;;;24.10;47.10;28.50;93375.00;;;;10432906;28;46092;-65
2021/10/05 16:01:38;;;;;;;1.80;0.40;;;24.10;47.10;28.50;93384.00;;;;10432261;28;75198;-65
2021/10/05 16:06:39;;;;;;;2.15;0.50;;;24.10;47.10;28.50;93386.00;;;;10432965;28;75424;-64
2021/10/05 16:11:41;;;;;;;1.00;0.50;;;24.10;47.00;28.50;93381.00;;;;10433176;28;45529;-65
2021/10/05 16:16:42;;;;;;;1.50;0.50;;;24.10;47.10;28.50;93388.00;;;;10432548;28;45447;-66
2021/10/05 16:21:43;;;;;;;0.50;0.40;;;24.10;47.10;28.50;93389.00;;;;10466832;28;45368;-65
2021/10/05 16:26:43;;;;;;;0.40;0.32;;;24.10;47.10;28.50;93385.00;;;;10474877;28;74221;-66
2021/10/05 16:31:44;;;;;;;0.98;0.40;;;24.10;47.10;28.50;93394.00;;;;10474742;28;75574;-65
2021/10/05 16:36:45;;;;;;;0.30;0.30;;;24.10;47.10;28.50;93399.00;;;;10472511;28;74757;-64
2021/10/05 16:41:47;;;;;;;1.38;0.40;;;24.10;47.10;28.50;93417.00;;;;10474332;28;46217;-64
2021/10/05 16:46:48;;;;;;;0.30;0.30;;;24.10;47.10;28.50;93396.00;;;;10456716;28;47275;-65
2021/10/05 16:51:48;;;;;;;1.55;0.52;;;24.10;47.10;28.50;93400.00;;;;10468171;28;74689;-65
2021/10/05 16:56:51;;;;;;;1.40;0.60;;;24.10;47.10;28.50;93418.00;;;;10469737;28;45418;-64
2021/10/05 17:01:51;;;;;;;1.77;0.47;;;24.10;47.00;28.50;93417.00;;;;10472885;28;44885;-63
2021/10/05 17:06:52;;;;;;;3.78;0.70;;;24.10;47.00;28.50;93411.00;;;;10472859;28;75638;-64
2021/10/05 17:11:53;;;;;;;5.63;0.70;;;24.00;46.90;28.40;93431.00;;;;10471837;28;75489;-64
2021/10/05 17:16:54;;;;;;;2.70;0.60;;;24.00;46.70;28.40;93440.00;;;;10473044;28;52427;-65
2021/10/05 17:21:54;;;;;;;2.05;0.60;;;24.00;46.60;28.40;93453.00;;;;10472907;28;46869;-65
2021/10/05 17:26:56;;;;;;;4.10;0.52;;;24.00;46.50;28.40;93466.00;;;;10454315;28;76225;-65
2021/10/05 17:31:57;;;;;;;4.85;0.80;;;24.00;46.50;28.40;93462.00;;;;10477165;28;45916;-66
2021/10/05 17:36:58;;;;;;;5.85;0.90;;;24.00;46.50;28.40;93475.00;;;;10462803;28;47082;-65
2021/10/05 17:41:58;;;;;;;4.30;0.70;;;24.00;46.50;28.40;93482.00;;;;10452846;28;75438;-65
2021/10/05 17:46:59;;;;;;;2.83;0.75;;;24.00;46.60;28.40;93484.00;;;;10436686;28;62245;-68
2021/10/05 17:52:03;;;;;;;3.80;1.15;;;24.00;46.70;28.40;93479.00;;;;10433459;28;67880;-70
2021/10/05 17:57:06;;;;;;;2.67;0.73;;;24.10;47.00;28.50;93471.00;;;;10419304;28;47285;-72
2021/10/05 18:02:07;;;;;;;2.90;0.80;;;24.10;47.20;28.50;93507.00;;;;10437841;28;47817;-68
2021/10/05 18:07:08;;;;;;;5.70;0.80;;;24.10;47.30;28.50;93508.00;;;;10426524;28;75436;-68
2021/10/05 18:12:09;;;;;;;3.00;0.60;;;24.10;47.30;28.60;93523.00;;;;10436021;28;51073;-71
2021/10/05 18:17:10;;;;;;;1.20;0.68;;;24.20;47.40;28.60;93505.00;;;;10418138;28;47568;-72
2021/10/05 18:22:11;;;;;;;5.22;0.85;;;24.20;47.50;28.60;93510.00;;;;10435656;28;62055;-64
2021/10/05 18:27:12;;;;;;;4.22;0.70;;;24.20;47.40;28.60;93518.00;;;;10435632;28;45391;-64
2021/10/05 18:32:13;;;;;;;1.52;0.65;;;24.20;47.30;28.60;93542.00;;;;10419422;28;47051;-65
2021/10/05 18:37:14;;;;;;;1.73;0.52;;;24.20;47.30;28.60;93552.00;;;;10435982;28;47107;-65
2021/10/05 18:42:14;;;;;;;1.90;0.50;;;24.10;47.20;28.60;93547.00;;;;10438253;28;71475;-65
2021/10/05 18:47:15;;;;;;;2.00;0.50;;;24.10;47.10;28.60;93551.00;;;;10434844;28;75815;-65
2021/10/05 18:52:16;;;;;;;2.00;0.40;;;24.10;47.10;28.60;93561.00;;;;10429156;28;72860;-64
2021/10/05 18:57:17;;;;;;;1.95;0.40;;;24.10;47.10;28.50;93562.00;;;;10433827;28;46931;-64
2021/10/05 19:02:18;;;;;;;1.17;0.50;;;24.20;47.20;28.60;93560.00;;;;10434247;28;75411;-64
2021/10/05 19:07:18;;;;;;;2.35;0.60;;;24.10;47.00;28.50;93577.00;;;;10435066;28;75389;-65
2021/10/05 19:12:19;;;;;;;1.27;0.40;;;24.10;47.00;28.50;93592.00;;;;10437153;28;57251;-65
2021/10/05 19:17:21;;;;;;;1.38;0.35;;;24.20;47.10;28.50;93608.00;;;;10455148;28;75650;-65
2021/10/05 19:22:21;;;;;;;0.93;0.40;;;24.10;47.00;28.50;93614.00;;;;10477724;28;45447;-64
2021/10/05 19:27:22;;;;;;;1.40;0.50;;;24.10;47.00;28.60;93624.00;;;;10477139;28;46202;-65
2021/10/05 19:32:23;;;;;;;1.80;0.43;;;24.10;47.00;28.50;93633.00;;;;10475419;28;48370;-64
2021/10/05 19:37:24;;;;;;;0.80;0.50;;;24.10;47.00;28.50;93624.00;;;;10474408;28;75486;-64
2021/10/05 19:42:24;;;;;;;0.28;0.25;;;24.10;46.90;28.50;93624.00;;;;10475176;28;58555;-64
2021/10/05 19:47:25;;;;;;;0.73;0.30;;;24.10;46.80;28.50;93653.00;;;;10457136;28;74043;-64
2021/10/05 19:52:26;;;;;;;0.55;0.30;;;24.10;46.80;28.60;93654.00;;;;10457002;28;75139;-65
2021/10/05 19:57:26;;;;;;;1.38;0.25;;;24.10;46.80;28.50;93646.00;;;;10473450;28;66157;-65
2021/10/05 20:02:27;;;;;;;1.05;0.20;;;24.20;46.70;28.50;93642.00;;;;10475657;28;46075;-64
2021/10/05 20:07:28;;;;;;;0.47;0.30;;;24.10;46.60;28.60;93657.00;;;;10485477;22;46452;-63
2021/10/05 20:12:29;;;;;;;2.72;0.47;;;24.10;46.60;28.60;93679.00;;;;10389169;28;74620;-63
2021/10/05 20:17:29;;;;;;;1.02;0.30;;;24.10;46.50;28.60;93681.00;;;;10386934;28;66825;-63
2021/10/05 20:22:30;;;;;;;0.63;0.30;;;24.10;46.40;28.50;93677.00;;;;10402523;28;75552;-63
2021/10/05 20:27:31;;;;;;;0.82;0.40;;;24.10;46.40;28.50;93677.00;;;;10406932;28;66964;-63
2021/10/05 20:32:32;;;;;;;0.50;0.20;;;24.10;46.40;28.50;93680.00;;;;10390783;28;65391;-62
2021/10/05 20:37:33;;;;;;;0.55;0.28;;;24.10;46.40;28.50;93679.00;;;;10391365;28;46499;-62
2021/10/05 20:42:34;;;;;;;0.35;0.20;;;24.10;46.40;28.40;93677.00;;;;10407416;28;45728;-62
2021/10/05 20:47:35;;;;;;;0.65;0.30;;;24.00;46.30;28.40;93696.00;;;;10406861;28;45346;-63
2021/10/05 20:52:36;;;;;;;0.75;0.20;;;24.00;46.40;28.40;93709.00;;;;10390416;28;75690;-64
2021/10/05 20:57:37;;;;;;;1.27;0.40;;;24.00;46.40;28.40;93718.00;;;;10405558;28;75656;-63
2021/10/05 21:02:38;;;;;;;1.88;0.32;;;23.90;47.00;28.40;93725.00;;;;10407322;28;45669;-63
2021/10/05 21:07:39;;;;;;;0.47;0.20;;;23.90;46.40;28.30;93729.00;;;;10394816;28;47461;-63
2021/10/05 21:12:39;;;;;;;1.02;0.40;;;23.90;46.40;28.30;93729.00;;;;10413753;28;75583;-63
2021/10/05 21:17:40;;;;;;;0.30;0.20;;;23.90;46.30;28.30;93760.00;;;;10396878;28;77755;-63
2021/10/05 21:22:41;;;;;;;1.10;0.30;;;23.90;46.40;28.20;93770.00;;;;10397601;28;48014;-63
2021/10/05 21:27:42;;;;;;;0.75;0.38;;;23.80;46.30;28.20;93765.00;;;;10412298;28;73506;-63
2021/10/05 21:32:43;;;;;;;0.40;0.30;;;23.90;46.50;28.20;93774.00;;;;10413617;28;45333;-63
2021/10/05 21:37:44;;;;;;;1.45;0.25;;;23.80;46.30;28.20;93780.00;;;;10398069;28;45440;-63
2021/10/05 21:42:45;;;;;;;0.55;0.20;;;23.80;46.40;28.10;93776.00;;;;10413230;28;51584;-63
2021/10/05 21:47:45;;;;;;;0.65;0.20;;;23.80;46.50;28.10;93773.00;;;;10412791;28;45355;-63
2021/10/05 21:52:46;;;;;;;1.00;0.25;;;23.80;46.50;28.10;93793.00;;;;10396164;28;47958;-63
2021/10/05 21:57:49;;;;;;;0.68;0.30;;;23.70;46.50;28.10;93788.00;;;;10395463;28;73932;-62
2021/10/05 22:02:49;;;;;;;0.80;0.20;;;23.70;46.40;28.00;93797.00;;;;10412003;28;46782;-63
2021/10/05 22:07:50;;;;;;;1.08;0.40;;;23.70;46.40;28.00;93808.00;;;;10393882;28;74807;-63
2021/10/05 22:12:51;;;;;;;0.70;0.30;;;23.70;46.40;28.00;93808.00;;;;10412926;28;45296;-63
2021/10/05 22:17:52;;;;;;;0.60;0.30;;;23.70;46.40;28.00;93814.00;;;;10397272;28;45643;-63